Time;durP1;ratioP1;P1;durP2;ratioP2;P2;SDS_P1;SDS_P2;PMS_P1;PMS_P2;Temp;Humidity;BMP_temperature;BMP_pressure;BME280_temperature;BME280_humidity;BME280_pressure;Samples;Min_cycle;Max_cycle;Signal;HPM_P1;HPM_P2
2022/06/05 00:01:53;;;;;;;25.30;14.57;;;13.40;99.90;;;;;;5041730;28;20048;-71
2022/06/05 00:04:33;;;;;;;22.92;13.65;;;13.40;99.90;;;;;;5044150;28;20513;-72
2022/06/05 00:07:01;;;;;;;22.95;14.07;;;13.40;99.90;;;;;;5037839;28;20029;-72
2022/06/05 00:09:33;;;;;;;29.50;14.73;;;13.30;99.90;;;;;;5019751;28;20359;-71
2022/06/05 00:12:19;;;;;;;24.92;13.80;;;13.30;99.90;;;;;;5020152;28;20416;-71
2022/06/05 00:14:45;;;;;;;23.90;14.40;;;13.20;99.90;;;;;;5019106;28;20079;-72
2022/06/05 00:17:15;;;;;;;23.88;13.50;;;13.20;99.90;;;;;;5037984;28;20041;-72
2022/06/05 00:19:44;;;;;;;21.88;13.05;;;13.20;99.90;;;;;;5039796;28;20077;-71
2022/06/05 00:22:09;;;;;;;25.40;15.07;;;13.20;99.90;;;;;;5038450;28;20056;-72
2022/06/05 00:24:35;;;;;;;27.63;15.27;;;13.20;99.90;;;;;;5038952;28;20459;-73
2022/06/05 00:27:18;;;;;;;22.15;14.73;;;13.20;99.90;;;;;;5056074;28;20025;-72
2022/06/05 00:30:01;;;;;;;25.00;14.50;;;13.20;99.90;;;;;;5039028;28;20026;-72
2022/06/05 00:32:35;;;;;;;26.10;14.35;;;13.20;99.90;;;;;;5057280;28;20064;-72
2022/06/05 00:35:01;;;;;;;24.27;14.13;;;13.20;99.90;;;;;;5039313;28;20112;-70
2022/06/05 00:37:44;;;;;;;26.08;14.95;;;13.20;99.90;;;;;;5057026;28;20106;-71
2022/06/05 00:40:28;;;;;;;25.40;14.65;;;13.20;99.90;;;;;;5057549;28;20036;-73
2022/06/05 00:42:56;;;;;;;24.02;14.63;;;13.20;99.90;;;;;;5057823;28;20453;-72
2022/06/05 00:45:22;;;;;;;24.13;14.43;;;13.20;99.90;;;;;;5059014;28;20032;-72
2022/06/05 00:47:48;;;;;;;22.98;12.93;;;13.20;99.90;;;;;;5039727;28;20021;-72
2022/06/05 00:50:17;;;;;;;26.58;14.98;;;13.20;99.90;;;;;;5057839;28;20021;-72
2022/06/05 00:52:48;;;;;;;26.85;14.80;;;13.10;99.90;;;;;;5057910;28;20081;-72
2022/06/05 00:55:15;;;;;;;25.33;16.27;;;13.10;99.90;;;;;;5058014;28;20079;-72
2022/06/05 00:57:42;;;;;;;24.80;15.52;;;13.10;99.90;;;;;;5056926;28;20037;-72
2022/06/05 01:00:23;;;;;;;25.40;14.60;;;13.10;99.90;;;;;;5057599;28;20075;-72
2022/06/05 01:02:53;;;;;;;24.92;14.98;;;13.10;99.90;;;;;;5057557;28;20029;-71
2022/06/05 01:05:21;;;;;;;26.50;14.93;;;13.10;99.90;;;;;;5057890;28;20027;-72
2022/06/05 01:07:47;;;;;;;22.30;14.38;;;13.10;99.90;;;;;;5057484;28;20029;-72
2022/06/05 01:10:16;;;;;;;24.10;15.23;;;13.10;99.90;;;;;;5057607;28;20036;-71
2022/06/05 01:13:02;;;;;;;29.85;16.27;;;13.10;99.90;;;;;;5057104;28;20033;-72
2022/06/05 01:15:43;;;;;;;22.90;14.93;;;13.00;99.90;;;;;;5057183;28;20025;-72
2022/06/05 01:18:26;;;;;;;22.55;14.40;;;13.00;99.90;;;;;;5057041;28;20494;-72
2022/06/05 01:21:07;;;;;;;23.63;13.93;;;12.90;99.90;;;;;;5039191;28;20083;-71
2022/06/05 01:23:32;;;;;;;27.88;15.38;;;12.90;99.90;;;;;;5057305;28;20025;-71
2022/06/05 01:26:26;;;;;;;24.90;14.98;;;12.90;99.90;;;;;;5057876;28;20331;-71
2022/06/05 01:29:26;;;;;;;29.60;15.38;;;12.90;99.90;;;;;;5058704;28;20116;-71
2022/06/05 01:31:58;;;;;;;19.13;13.77;;;12.90;99.90;;;;;;5039199;28;20519;-72
2022/06/05 01:34:39;;;;;;;23.83;14.55;;;12.90;99.90;;;;;;5040166;28;20048;-72
2022/06/05 01:37:27;;;;;;;23.25;14.45;;;12.80;99.90;;;;;;5059429;28;20146;-71
2022/06/05 01:40:16;;;;;;;22.48;14.68;;;12.80;99.90;;;;;;5042949;28;20051;-72
2022/06/05 01:42:48;;;;;;;23.77;14.38;;;12.90;99.90;;;;;;5060361;28;20021;-72
2022/06/05 01:45:38;;;;;;;22.65;13.35;;;12.80;99.90;;;;;;5042756;28;20115;-72
2022/06/05 01:48:08;;;;;;;26.13;14.55;;;12.80;99.90;;;;;;5043629;28;20077;-72
2022/06/05 01:50:47;;;;;;;23.02;13.93;;;12.80;99.90;;;;;;5043508;28;20093;-72
2022/06/05 01:53:24;;;;;;;23.65;13.95;;;12.80;99.90;;;;;;5026444;28;20055;-72
2022/06/05 01:55:57;;;;;;;23.98;14.10;;;12.70;99.90;;;;;;5027728;28;20362;-73
2022/06/05 01:58:41;;;;;;;20.55;13.52;;;12.70;99.90;;;;;;5047516;28;20112;-70
2022/06/05 02:01:15;;;;;;;21.33;13.85;;;12.70;99.90;;;;;;5048731;28;20029;-71
2022/06/05 02:03:50;;;;;;;19.85;13.77;;;12.80;99.90;;;;;;5045437;28;20028;-71
2022/06/05 02:06:26;;;;;;;24.50;13.50;;;12.80;99.90;;;;;;5044596;28;20037;-71
2022/06/05 02:08:57;;;;;;;23.35;14.20;;;12.80;99.90;;;;;;5038336;28;20020;-70
2022/06/05 02:11:25;;;;;;;23.25;13.10;;;12.70;99.90;;;;;;5036811;28;20021;-72
2022/06/05 02:14:00;;;;;;;19.52;13.43;;;12.70;99.90;;;;;;5019084;28;20018;-71
2022/06/05 02:16:30;;;;;;;23.58;13.23;;;12.70;99.90;;;;;;5036285;28;20056;-72
2022/06/05 02:18:59;;;;;;;23.65;13.45;;;12.60;99.90;;;;;;5019220;28;20021;-71
2022/06/05 02:21:25;;;;;;;24.60;14.10;;;12.60;99.90;;;;;;5036005;28;20103;-71
2022/06/05 02:23:51;;;;;;;22.98;13.60;;;12.50;99.90;;;;;;5035941;28;20061;-72
2022/06/05 02:26:16;;;;;;;18.27;12.45;;;12.60;99.90;;;;;;5035782;28;20494;-71
2022/06/05 02:28:42;;;;;;;20.80;13.20;;;12.60;99.90;;;;;;5017702;28;20030;-73
2022/06/05 02:31:14;;;;;;;19.20;12.95;;;12.50;99.90;;;;;;5038338;28;20437;-71
2022/06/05 02:33:52;;;;;;;21.83;13.88;;;12.50;99.90;;;;;;5057074;28;20017;-72
2022/06/05 02:36:55;;;;;;;18.77;12.98;;;12.60;99.90;;;;;;5040912;28;20394;-72
2022/06/05 02:39:41;;;;;;;20.05;13.30;;;12.50;99.90;;;;;;5031705;28;20060;-72
2022/06/05 02:42:16;;;;;;;22.30;13.48;;;12.50;99.90;;;;;;5063383;28;20021;-71
2022/06/05 02:44:58;;;;;;;18.83;13.02;;;12.50;99.90;;;;;;5062648;28;20025;-72
2022/06/05 02:47:35;;;;;;;24.85;14.20;;;12.50;99.90;;;;;;5063361;28;20095;-71
2022/06/05 02:50:26;;;;;;;19.67;12.90;;;12.50;99.90;;;;;;5063226;28;20143;-72
2022/06/05 02:52:58;;;;;;;23.80;13.07;;;12.50;99.90;;;;;;5044917;28;20021;-72
2022/06/05 02:55:24;;;;;;;20.38;12.43;;;12.40;99.90;;;;;;5061691;28;20029;-71
2022/06/05 02:57:50;;;;;;;20.52;12.45;;;12.50;99.90;;;;;;5043358;28;20033;-72
2022/06/05 03:00:22;;;;;;;26.63;13.25;;;12.40;99.90;;;;;;5064572;28;20580;-71
2022/06/05 03:05:32;;;;;;;20.38;13.00;;;12.40;99.90;;;;;;5063056;28;20035;-72
2022/06/05 03:07:58;;;;;;;18.10;12.52;;;12.50;99.90;;;;;;5061455;28;20021;-72
2022/06/05 03:10:25;;;;;;;18.20;12.00;;;12.50;99.90;;;;;;5061862;28;20039;-72
2022/06/05 03:12:50;;;;;;;20.35;12.05;;;12.40;99.90;;;;;;5061668;28;20440;-73
2022/06/05 03:15:17;;;;;;;18.42;12.57;;;12.40;99.90;;;;;;5063661;28;20020;-72
2022/06/05 03:17:43;;;;;;;21.23;12.82;;;12.40;99.90;;;;;;5061994;28;20017;-72
2022/06/05 03:20:11;;;;;;;21.45;12.35;;;12.40;99.90;;;;;;5061414;28;20111;-72
2022/06/05 03:22:37;;;;;;;16.02;11.77;;;12.30;99.90;;;;;;5062201;28;20048;-73
2022/06/05 03:25:03;;;;;;;18.13;11.27;;;12.30;99.90;;;;;;5062062;28;20474;-72
2022/06/05 03:27:30;;;;;;;19.83;12.02;;;12.30;99.90;;;;;;5062009;28;20032;-72
2022/06/05 03:29:56;;;;;;;16.67;11.95;;;12.30;99.90;;;;;;5044940;28;20111;-73
2022/06/05 03:32:23;;;;;;;19.95;13.40;;;12.40;99.90;;;;;;5063002;28;20029;-73
2022/06/05 03:34:49;;;;;;;17.77;12.88;;;12.40;99.90;;;;;;5062128;28;20055;-73
2022/06/05 03:37:15;;;;;;;20.58;12.30;;;12.40;99.90;;;;;;5061540;28;20090;-72
2022/06/05 03:39:41;;;;;;;18.38;11.52;;;12.40;99.90;;;;;;5061714;28;20429;-72
2022/06/05 03:42:07;;;;;;;19.58;12.20;;;12.40;99.90;;;;;;5043519;28;20474;-72
2022/06/05 03:44:42;;;;;;;16.70;12.13;;;12.30;99.90;;;;;;5063823;28;20413;-71
2022/06/05 03:47:12;;;;;;;21.80;12.57;;;12.40;99.90;;;;;;5062499;28;20025;-71
2022/06/05 03:49:37;;;;;;;17.77;11.32;;;12.40;99.90;;;;;;5042928;28;20040;-72
2022/06/05 03:52:04;;;;;;;16.65;11.23;;;12.40;99.90;;;;;;5057723;28;20025;-72
2022/06/05 03:54:31;;;;;;;18.58;11.98;;;12.50;99.90;;;;;;5041005;28;20382;-73
2022/06/05 03:56:57;;;;;;;16.98;11.35;;;12.50;99.90;;;;;;5058903;28;20116;-74
2022/06/05 03:59:23;;;;;;;16.08;11.68;;;12.60;99.90;;;;;;5061058;28;20077;-73
2022/06/05 04:01:48;;;;;;;23.27;12.45;;;12.60;99.90;;;;;;5062050;28;20059;-73
2022/06/05 04:04:14;;;;;;;18.70;12.30;;;12.60;99.90;;;;;;5057987;28;20521;-73
2022/06/05 04:06:40;;;;;;;17.45;11.82;;;12.60;99.90;;;;;;5057741;28;20516;-73
2022/06/05 04:09:08;;;;;;;19.48;11.32;;;12.70;99.90;;;;;;5057878;28;20025;-72
2022/06/05 04:11:35;;;;;;;18.27;12.13;;;12.70;99.90;;;;;;5040141;28;20033;-72
2022/06/05 04:14:02;;;;;;;17.02;12.20;;;12.70;99.90;;;;;;5058116;28;20017;-72
2022/06/05 04:16:29;;;;;;;18.20;11.70;;;12.70;99.90;;;;;;5057599;28;20489;-72
2022/06/05 04:18:56;;;;;;;18.67;11.20;;;12.70;99.90;;;;;;5057892;28;20476;-72
2022/06/05 04:21:26;;;;;;;14.55;11.35;;;12.80;99.90;;;;;;5057896;28;20493;-72
2022/06/05 04:23:53;;;;;;;18.92;12.32;;;12.80;99.90;;;;;;5041453;28;20079;-71
2022/06/05 04:26:22;;;;;;;19.38;12.48;;;12.80;99.90;;;;;;5057948;28;20017;-72
2022/06/05 04:28:48;;;;;;;16.17;11.93;;;12.80;99.90;;;;;;5057485;28;20025;-72
2022/06/05 04:31:21;;;;;;;22.75;12.32;;;12.90;99.90;;;;;;5040158;28;20017;-72
2022/06/05 04:33:52;;;;;;;18.25;11.23;;;12.90;99.90;;;;;;5040687;28;20470;-72
2022/06/05 04:36:18;;;;;;;19.40;11.53;;;13.00;99.90;;;;;;5059500;28;20024;-71
2022/06/05 04:38:44;;;;;;;14.57;11.05;;;13.10;99.90;;;;;;5058723;28;20017;-71
2022/06/05 04:41:10;;;;;;;14.63;10.20;;;13.10;99.90;;;;;;5039983;28;20119;-72
2022/06/05 04:43:36;;;;;;;17.30;11.00;;;13.20;99.90;;;;;;5058137;28;20023;-71
2022/06/05 04:46:03;;;;;;;17.13;11.18;;;13.30;99.90;;;;;;5058059;28;20027;-72
2022/06/05 04:48:29;;;;;;;17.58;10.85;;;13.20;99.90;;;;;;5057778;28;20044;-71
2022/06/05 04:50:54;;;;;;;15.63;10.55;;;13.30;99.90;;;;;;5057703;28;20025;-72
2022/06/05 04:53:20;;;;;;;17.58;11.52;;;13.30;99.90;;;;;;5056754;28;20033;-72
2022/06/05 04:55:46;;;;;;;16.38;11.18;;;13.30;99.90;;;;;;5056579;28;20017;-71
2022/06/05 04:58:12;;;;;;;15.75;10.18;;;13.50;99.90;;;;;;5057314;28;20103;-72
2022/06/05 05:00:39;;;;;;;15.73;10.45;;;13.50;99.90;;;;;;5057538;28;20446;-71
2022/06/05 05:03:05;;;;;;;18.17;10.70;;;13.60;99.90;;;;;;5056032;28;20025;-71
2022/06/05 05:05:32;;;;;;;13.73;10.40;;;13.70;99.90;;;;;;5056561;28;20108;-71
2022/06/05 05:07:58;;;;;;;16.45;10.68;;;13.90;99.90;;;;;;5056189;28;20032;-71
2022/06/05 05:10:24;;;;;;;12.45;9.50;;;14.00;99.90;;;;;;5055974;28;20029;-72
2022/06/05 05:12:49;;;;;;;14.45;10.85;;;14.10;99.90;;;;;;5056329;28;20040;-72
2022/06/05 05:15:15;;;;;;;18.13;11.13;;;14.20;99.90;;;;;;5038751;28;20498;-71
2022/06/05 05:17:41;;;;;;;12.88;10.07;;;14.30;99.90;;;;;;5057216;28;20074;-72
2022/06/05 05:20:07;;;;;;;14.45;10.40;;;14.40;99.90;;;;;;5057632;28;20033;-72
2022/06/05 05:22:37;;;;;;;13.00;9.82;;;14.50;99.90;;;;;;5057823;28;20035;-72
2022/06/05 05:25:05;;;;;;;15.20;10.50;;;14.60;99.90;;;;;;5057882;28;20021;-71
2022/06/05 05:27:32;;;;;;;14.57;10.10;;;14.70;99.90;;;;;;5057229;28;20029;-72
2022/06/05 05:29:57;;;;;;;13.27;10.10;;;14.80;99.90;;;;;;5057955;28;20386;-72
2022/06/05 05:32:23;;;;;;;13.57;9.95;;;14.90;99.90;;;;;;5059739;28;20045;-71
2022/06/05 05:34:49;;;;;;;12.18;9.75;;;15.00;99.90;;;;;;5043626;28;20540;-71
2022/06/05 05:37:14;;;;;;;11.55;9.48;;;15.20;99.90;;;;;;5059464;28;20139;-71
2022/06/05 05:42:24;;;;;;;12.45;9.10;;;15.30;99.90;;;;;;5068585;28;20070;-71
2022/06/05 05:44:53;;;;;;;16.60;9.15;;;15.30;99.90;;;;;;5055239;28;20029;-71
2022/06/05 05:47:22;;;;;;;12.90;9.00;;;15.50;99.90;;;;;;5064827;28;20029;-71
2022/06/05 05:49:53;;;;;;;13.00;8.93;;;15.50;99.90;;;;;;5059359;28;20070;-71
2022/06/05 05:52:19;;;;;;;14.43;8.63;;;15.70;99.90;;;;;;5059742;28;20032;-72
2022/06/05 05:54:45;;;;;;;16.58;8.55;;;15.80;99.90;;;;;;5060056;28;20024;-71
2022/06/05 05:57:10;;;;;;;12.80;7.40;;;15.90;99.90;;;;;;5059873;28;20482;-72
2022/06/05 05:59:37;;;;;;;9.77;7.80;;;16.00;99.90;;;;;;5067079;22;20053;-49
2022/06/05 06:02:06;;;;;;;11.57;7.75;;;16.10;99.90;;;;;;5053109;28;20025;-47
2022/06/05 06:04:32;;;;;;;8.63;7.70;;;16.30;99.90;;;;;;5053014;28;20025;-47
2022/06/05 06:06:58;;;;;;;8.57;7.63;;;16.40;99.90;;;;;;5052882;28;20044;-48
2022/06/05 06:09:23;;;;;;;9.40;7.07;;;16.60;99.90;;;;;;5053512;28;20028;-50
2022/06/05 06:11:49;;;;;;;10.68;7.32;;;16.70;99.90;;;;;;5052853;28;20105;-47
2022/06/05 06:14:15;;;;;;;11.75;6.78;;;16.80;99.90;;;;;;5052574;28;20524;-47
2022/06/05 06:16:41;;;;;;;9.68;6.60;;;16.90;99.90;;;;;;5053205;28;20064;-52
2022/06/05 06:19:07;;;;;;;11.68;7.05;;;17.10;99.90;;;;;;5052995;28;20021;-48
2022/06/05 06:21:33;;;;;;;9.02;6.78;;;17.20;99.90;;;;;;5052809;28;20052;-52
2022/06/05 06:23:59;;;;;;;12.55;6.78;;;17.30;99.90;;;;;;5053092;28;20401;-47
2022/06/05 06:26:24;;;;;;;9.65;6.75;;;17.40;99.90;;;;;;5052761;28;20035;-47
2022/06/05 06:28:50;;;;;;;7.97;6.07;;;17.60;99.90;;;;;;5052994;28;20021;-48
2022/06/05 06:31:16;;;;;;;6.40;5.78;;;17.70;99.90;;;;;;5052562;28;20093;-48
2022/06/05 06:33:43;;;;;;;12.25;6.72;;;17.90;99.90;;;;;;5052808;28;20029;-49
2022/06/05 06:36:11;;;;;;;7.82;5.43;;;18.00;99.90;;;;;;5052941;28;20452;-49
2022/06/05 06:38:37;;;;;;;7.75;6.13;;;18.10;99.90;;;;;;5052566;28;20021;-48
2022/06/05 06:41:09;;;;;;;9.70;5.50;;;18.20;99.90;;;;;;5052867;28;20437;-49
2022/06/05 06:43:34;;;;;;;;;;;18.30;99.90;;;;;;5035426;28;20521;-52
2022/06/05 06:46:01;;;;;;;9.25;6.45;;;18.50;99.90;;;;;;5052632;28;19905;-48
2022/06/05 06:48:27;;;;;;;8.35;5.28;;;18.60;99.90;;;;;;5052681;28;20049;-48
2022/06/05 06:50:54;;;;;;;7.18;5.90;;;18.70;99.90;;;;;;5052618;28;20017;-48
2022/06/05 06:53:20;;;;;;;9.80;5.68;;;18.90;99.90;;;;;;5052587;28;20067;-49
2022/06/05 06:55:47;;;;;;;6.28;5.07;;;19.00;99.90;;;;;;5052341;28;20029;-48
2022/06/05 06:58:13;;;;;;;7.65;5.57;;;19.10;99.90;;;;;;5052418;28;20029;-48
2022/06/05 07:00:39;;;;;;;8.63;5.28;;;19.20;99.90;;;;;;5052474;28;20553;-48
2022/06/05 07:03:05;;;;;;;7.78;5.25;;;19.20;99.90;;;;;;5052390;28;20029;-48
2022/06/05 07:05:31;;;;;;;7.63;5.28;;;19.30;99.90;;;;;;5052544;28;20060;-48
2022/06/05 07:07:57;;;;;;;7.47;5.05;;;19.50;99.90;;;;;;5052276;28;20033;-48
2022/06/05 07:10:22;;;;;;;6.22;4.93;;;19.50;99.90;;;;;;5052335;28;20509;-49
2022/06/05 07:12:48;;;;;;;6.28;5.20;;;19.60;99.90;;;;;;5052317;28;20040;-51
2022/06/05 07:15:14;;;;;;;6.03;5.22;;;19.70;99.90;;;;;;5034424;28;20489;-49
2022/06/05 07:17:40;;;;;;;7.70;5.00;;;19.90;99.90;;;;;;5052365;28;20032;-48
2022/06/05 07:20:07;;;;;;;6.47;5.25;;;20.00;99.90;;;;;;5052421;28;20025;-49
2022/06/05 07:22:33;;;;;;;6.05;5.25;;;20.00;99.90;;;;;;5052468;28;20061;-47
2022/06/05 07:24:59;;;;;;;9.48;5.18;;;20.10;99.90;;;;;;5053639;28;20449;-48
2022/06/05 07:27:25;;;;;;;5.07;4.57;;;20.30;99.90;;;;;;5056011;28;20383;-49
2022/06/05 07:29:51;;;;;;;7.28;4.90;;;20.40;99.90;;;;;;5055766;28;20049;-49
2022/06/05 07:32:17;;;;;;;6.93;5.38;;;20.40;99.90;;;;;;5056040;28;20056;-48
2022/06/05 07:34:43;;;;;;;7.85;4.72;;;20.50;99.90;;;;;;5038050;28;20048;-48
2022/06/05 07:37:09;;;;;;;11.32;4.90;;;20.60;99.90;;;;;;5056577;28;20025;-48
2022/06/05 07:39:35;;;;;;;6.18;4.25;;;20.70;99.90;;;;;;5055776;28;20534;-48
2022/06/05 07:42:00;;;;;;;6.35;5.00;;;20.70;99.90;;;;;;5055624;28;20025;-48
2022/06/05 07:44:27;;;;;;;7.47;5.22;;;20.80;99.90;;;;;;5055829;28;20040;-47
2022/06/05 07:46:53;;;;;;;5.15;4.50;;;21.00;99.90;;;;;;5055618;28;20028;-50
2022/06/05 07:49:19;;;;;;;5.20;4.70;;;21.10;99.90;;;;;;5055631;28;20059;-52
2022/06/05 07:54:36;;;;;;;6.68;4.28;;;21.20;99.90;;;;;;5056210;28;20032;-48
2022/06/05 07:57:08;;;;;;;6.47;4.32;;;21.30;99.90;;;;;;5055314;28;20029;-50
2022/06/05 07:59:37;;;;;;;5.32;4.75;;;21.50;99.90;;;;;;5055313;28;20044;-48
2022/06/05 08:02:07;;;;;;;6.53;4.47;;;21.60;99.90;;;;;;5055253;28;20098;-49
2022/06/05 08:04:34;;;;;;;5.70;4.30;;;21.80;99.90;;;;;;5055347;28;20036;-49
2022/06/05 08:07:02;;;;;;;5.90;4.30;;;21.90;99.90;;;;;;5055262;28;20494;-50
2022/06/05 08:09:28;;;;;;;6.93;4.78;;;22.00;99.90;;;;;;5055377;28;20374;-51
2022/06/05 08:11:54;;;;;;;4.43;4.03;;;22.00;99.90;;;;;;5055270;28;20029;-47
2022/06/05 08:14:20;;;;;;;4.82;4.43;;;22.10;99.90;;;;;;5055248;28;20488;-52
2022/06/05 08:16:46;;;;;;;7.57;4.70;;;22.20;99.90;;;;;;5055216;28;20017;-48
2022/06/05 08:19:13;;;;;;;10.50;4.75;;;22.20;99.90;;;;;;5055088;28;20099;-48
2022/06/05 08:21:40;;;;;;;5.05;3.92;;;22.20;99.90;;;;;;5055115;28;20483;-48
2022/06/05 08:24:06;;;;;;;4.90;4.22;;;22.30;99.90;;;;;;5036887;28;20112;-48
2022/06/05 08:26:33;;;;;;;4.15;3.83;;;22.30;99.90;;;;;;5054883;28;20025;-50
2022/06/05 08:28:59;;;;;;;8.25;4.40;;;22.40;99.90;;;;;;5055260;28;20021;-49
2022/06/05 08:31:25;;;;;;;6.10;4.15;;;22.40;99.90;;;;;;5054934;28;20048;-48
2022/06/05 08:33:51;;;;;;;4.95;4.45;;;22.50;99.90;;;;;;5054881;28;20516;-48
2022/06/05 08:36:16;;;;;;;6.55;4.10;;;22.50;99.90;;;;;;5036160;28;20057;-47
2022/06/05 08:41:32;;;;;;;4.05;3.60;;;22.70;99.90;;;;;;5054822;28;20036;-48
2022/06/05 08:44:14;;;;;;;6.30;4.20;;;22.70;99.90;;;;;;5037562;28;20027;-46
2022/06/05 08:47:11;;;;;;;7.03;4.03;;;22.90;99.90;;;;;;5054800;28;20037;-48
2022/06/05 08:50:14;;;;;;;4.47;4.07;;;23.00;99.90;;;;;;5054671;28;20037;-49
2022/06/05 08:52:50;;;;;;;5.78;4.38;;;23.10;99.90;;;;;;5055905;28;20047;-48
2022/06/05 08:55:42;;;;;;;4.88;4.30;;;23.30;99.90;;;;;;5042867;28;20025;-49
2022/06/05 08:58:26;;;;;;;;;;;23.40;99.90;;;;;;5015361;28;20388;-50
2022/06/05 09:00:57;;;;;;;5.35;3.90;;;23.50;99.90;;;;;;5015189;28;20324;-50
2022/06/05 09:03:42;;;;;;;4.40;4.00;;;23.60;99.90;;;;;;5014872;28;20029;-48
2022/06/05 09:06:28;;;;;;;9.43;3.90;;;23.70;99.90;;;;;;5014941;28;20133;-50
2022/06/05 09:08:56;;;;;;;4.38;3.88;;;23.80;99.90;;;;;;5014448;28;20030;-48
2022/06/05 09:11:48;;;;;;;4.75;4.30;;;23.90;99.90;;;;;;5014424;28;20029;-50
2022/06/05 09:14:52;;;;;;;7.15;4.47;;;24.10;99.90;;;;;;5014800;28;20499;-49
2022/06/05 09:17:20;;;;;;;5.70;3.95;;;23.90;99.90;;;;;;5002087;28;20029;-49
2022/06/05 09:19:48;;;;;;;5.95;4.10;;;24.00;99.90;;;;;;5014393;28;20425;-49
2022/06/05 09:22:19;;;;;;;5.53;4.40;;;24.00;99.90;;;;;;5014416;28;20037;-49
2022/06/05 09:25:08;;;;;;;5.90;4.45;;;24.10;99.90;;;;;;5014249;28;20025;-49
2022/06/05 09:27:53;;;;;;;5.60;3.85;;;24.10;99.90;;;;;;5014119;28;20036;-51
2022/06/05 09:30:43;;;;;;;5.47;3.70;;;24.20;99.90;;;;;;5014336;28;20391;-49
2022/06/05 09:33:15;;;;;;;5.22;3.83;;;24.30;99.90;;;;;;5014049;28;20080;-52
2022/06/05 09:35:48;;;;;;;4.50;3.65;;;24.30;99.90;;;;;;5014245;28;20030;-48
2022/06/05 09:38:28;;;;;;;4.50;4.10;;;24.40;99.90;;;;;;5013973;28;20072;-47
2022/06/05 09:41:11;;;;;;;4.93;4.35;;;24.50;99.90;;;;;;5014783;28;20026;-53
2022/06/05 09:43:49;;;;;;;4.22;3.92;;;24.50;99.90;;;;;;5014653;28;20057;-47
2022/06/05 09:46:36;;;;;;;4.53;4.13;;;24.60;99.90;;;;;;5014318;28;20025;-50
2022/06/05 09:49:11;;;;;;;5.65;4.10;;;24.80;99.90;;;;;;5012998;28;20030;-51
2022/06/05 09:51:40;;;;;;;7.13;4.32;;;24.80;99.70;;;;;;5013841;28;20035;-54
2022/06/05 09:54:11;;;;;;;6.70;3.80;;;24.80;99.90;;;;;;5013800;28;20056;-51
2022/06/05 10:00:15;;;;;;;5.00;4.45;;;24.80;99.90;;;;;;5013773;28;20141;-49
2022/06/05 10:02:43;;;;;;;4.65;3.72;;;24.70;99.90;;;;;;4995851;28;20399;-48
2022/06/05 10:05:28;;;;;;;7.82;4.00;;;24.70;99.90;;;;;;4995761;28;20029;-47
2022/06/05 10:08:04;;;;;;;5.57;4.40;;;24.80;99.80;;;;;;5013482;28;20025;-49
2022/06/05 10:10:38;;;;;;;5.80;3.83;;;24.90;99.10;;;;;;5013785;28;20061;-48
2022/06/05 10:13:15;;;;;;;4.30;3.90;;;24.90;98.40;;;;;;5017640;28;20021;-49
2022/06/05 10:15:47;;;;;;;5.85;4.47;;;24.70;98.30;;;;;;5023127;28;20026;-51
2022/06/05 10:18:39;;;;;;;4.03;3.72;;;24.70;99.30;;;;;;5022640;28;20364;-48
2022/06/05 10:21:11;;;;;;;5.22;3.63;;;24.80;98.80;;;;;;5013357;28;20451;-49
2022/06/05 10:24:02;;;;;;;5.32;3.90;;;24.90;98.80;;;;;;5018644;28;20083;-51
2022/06/05 10:26:35;;;;;;;5.10;4.00;;;25.00;99.40;;;;;;5025612;28;20029;-51
2022/06/05 10:29:21;;;;;;;9.20;6.88;;;25.00;98.50;;;;;;5032590;28;20064;-53
2022/06/05 10:32:01;;;;;;;14.95;11.18;;;25.10;98.10;;;;;;5024971;28;20026;-49
2022/06/05 10:34:54;;;;;;;6.05;4.95;;;25.10;98.20;;;;;;5013508;28;20052;-51
2022/06/05 10:37:24;;;;;;;4.40;3.85;;;25.20;97.90;;;;;;5013607;28;20097;-48
2022/06/05 10:40:25;;;;;;;8.07;4.90;;;25.30;97.80;;;;;;5013070;28;20026;-53
2022/06/05 10:43:03;;;;;;;5.97;4.70;;;25.30;97.80;;;;;;4989864;28;20099;-47
2022/06/05 10:45:35;;;;;;;4.82;4.28;;;25.30;97.70;;;;;;5013178;28;20117;-50
2022/06/05 10:48:32;;;;;;;6.43;5.47;;;25.30;97.60;;;;;;5013459;28;20042;-47
2022/06/05 10:51:14;;;;;;;4.72;4.13;;;25.40;97.40;;;;;;5021807;28;20029;-47
2022/06/05 10:54:13;;;;;;;5.60;4.18;;;25.50;97.00;;;;;;4995703;28;20064;-47
2022/06/05 10:57:15;;;;;;;4.82;4.18;;;25.40;96.60;;;;;;5013745;28;20042;-46
2022/06/05 10:59:56;;;;;;;4.88;4.20;;;25.40;96.80;;;;;;5014418;28;20513;-47
2022/06/05 11:02:46;;;;;;;4.40;4.00;;;25.50;96.60;;;;;;5036962;28;20057;-47
2022/06/05 11:05:36;;;;;;;4.53;3.80;;;25.50;96.60;;;;;;5024007;28;20117;-49
2022/06/05 11:08:33;;;;;;;5.45;4.20;;;25.50;96.40;;;;;;5016778;28;20034;-50
2022/06/05 11:14:31;;;;;;;6.68;3.97;;;25.50;95.50;;;;;;5017329;28;20072;-47
2022/06/05 11:17:21;;;;;;;4.30;3.90;;;25.50;95.60;;;;;;5016755;28;20030;-48
2022/06/05 11:20:11;;;;;;;7.65;4.55;;;25.50;95.30;;;;;;5016917;28;20425;-50
2022/06/05 11:22:43;;;;;;;4.65;4.18;;;25.60;96.10;;;;;;5027382;28;20113;-49
2022/06/05 11:25:26;;;;;;;12.32;4.20;;;25.70;96.30;;;;;;5016789;28;20034;-47
2022/06/05 11:28:00;;;;;;;5.47;3.70;;;25.80;96.40;;;;;;5013728;28;20433;-47
2022/06/05 11:30:29;;;;;;;4.13;3.83;;;25.90;95.50;;;;;;5036443;28;20025;-49
2022/06/05 11:33:24;;;;;;;4.43;4.05;;;26.00;95.10;;;;;;5034318;28;20029;-47
2022/06/05 11:36:02;;;;;;;7.55;4.15;;;26.00;95.20;;;;;;5027381;28;20032;-48
2022/06/05 11:39:05;;;;;;;4.70;4.30;;;26.00;95.20;;;;;;5016788;28;20029;-48
2022/06/05 11:42:18;;;;;;;6.47;4.32;;;26.00;94.90;;;;;;5008024;28;20038;-50
2022/06/05 11:44:50;;;;;;;4.03;3.60;;;26.00;94.50;;;;;;5016324;28;20030;-48
2022/06/05 11:47:31;;;;;;;4.50;4.10;;;26.10;94.30;;;;;;5016334;28;20096;-47
2022/06/05 11:50:21;;;;;;;4.25;3.85;;;26.20;94.00;;;;;;5016345;28;20033;-48
2022/06/05 11:53:19;;;;;;;4.80;4.37;;;26.20;93.80;;;;;;5016593;28;20056;-48
2022/06/05 11:55:56;;;;;;;5.10;4.60;;;26.20;93.90;;;;;;4964764;28;20133;-48
2022/06/05 11:58:38;;;;;;;6.85;4.40;;;26.30;93.80;;;;;;5016102;28;20037;-47
2022/06/05 12:01:16;;;;;;;6.38;3.90;;;26.40;94.50;;;;;;5016039;28;20017;-50
2022/06/05 12:03:52;;;;;;;8.23;4.07;;;26.40;94.40;;;;;;5026980;28;20029;-49
2022/06/05 12:06:40;;;;;;;4.90;4.22;;;26.40;93.90;;;;;;5017365;28;20068;-48
2022/06/05 12:09:12;;;;;;;4.10;3.80;;;26.40;94.00;;;;;;4998563;28;20459;-49
2022/06/05 12:12:05;;;;;;;5.38;4.38;;;26.50;93.80;;;;;;5014686;28;20088;-51
2022/06/05 12:14:33;;;;;;;5.93;4.00;;;26.40;93.20;;;;;;5016098;28;20021;-49
2022/06/05 12:17:05;;;;;;;5.78;3.63;;;26.40;92.90;;;;;;5026815;28;20026;-47
2022/06/05 12:19:47;;;;;;;4.32;3.90;;;26.40;92.70;;;;;;5017261;28;20022;-47
2022/06/05 12:22:29;;;;;;;7.38;4.45;;;26.40;92.90;;;;;;5040021;28;20029;-51
2022/06/05 12:25:16;;;;;;;5.53;4.57;;;26.40;93.00;;;;;;5025854;28;20146;-48
2022/06/05 12:27:53;;;;;;;6.38;4.45;;;26.50;92.90;;;;;;5035426;28;20032;-47
2022/06/05 12:30:35;;;;;;;5.47;4.30;;;26.50;92.70;;;;;;5024068;28;20390;-47
2022/06/05 12:33:30;;;;;;;9.20;7.40;;;26.50;92.70;;;;;;5065610;22;20043;-72
2022/06/05 12:36:17;;;;;;;8.43;5.65;;;26.60;92.40;;;;;;5032270;28;20024;-73
2022/06/05 12:38:50;;;;;;;4.82;4.28;;;26.70;92.10;;;;;;5038328;28;20098;-73
2022/06/05 12:41:23;;;;;;;5.43;4.65;;;26.60;92.40;;;;;;5056782;28;20043;-73
2022/06/05 12:44:01;;;;;;;5.75;4.55;;;26.70;92.00;;;;;;5043223;28;20013;-73
2022/06/05 12:46:42;;;;;;;5.18;4.68;;;26.70;91.80;;;;;;5015740;28;20021;-77
2022/06/05 12:49:55;;;;;;;5.20;4.78;;;26.70;91.90;;;;;;5025554;28;20129;-73
2022/06/05 12:52:38;;;;;;;7.10;4.75;;;26.70;91.50;;;;;;4963908;28;20070;-75
2022/06/05 12:55:25;;;;;;;4.97;4.47;;;26.70;91.60;;;;;;5039731;28;20103;-76
2022/06/05 12:58:21;;;;;;;4.55;4.15;;;26.70;92.10;;;;;;5039023;28;20060;-76
2022/06/05 13:00:56;;;;;;;4.63;4.18;;;26.70;91.50;;;;;;5038729;28;20029;-76
2022/06/05 13:03:40;;;;;;;6.43;5.50;;;26.80;91.20;;;;;;5038292;28;20021;-77
2022/06/05 13:06:25;;;;;;;5.05;4.55;;;26.80;91.60;;;;;;5039201;28;20025;-76
2022/06/05 13:08:56;;;;;;;6.20;4.20;;;26.80;91.40;;;;;;5043557;28;20056;-75
2022/06/05 13:11:31;;;;;;;4.82;4.40;;;26.80;91.40;;;;;;5042618;28;20609;-75
2022/06/05 13:14:18;;;;;;;4.82;4.35;;;26.80;91.40;;;;;;5030493;28;20406;-76
2022/06/05 13:16:56;;;;;;;4.55;4.15;;;26.70;91.50;;;;;;5028663;28;20018;-73
2022/06/05 13:19:51;;;;;;;4.82;4.45;;;26.70;91.70;;;;;;5032338;28;20164;-74
2022/06/05 13:22:23;;;;;;;4.65;4.15;;;26.50;91.70;;;;;;5028689;28;20375;-73
2022/06/05 13:25:15;;;;;;;6.93;4.45;;;26.40;91.50;;;;;;5033437;28;20505;-74
2022/06/05 13:28:18;;;;;;;5.50;4.10;;;26.30;91.60;;;;;;5025620;28;20387;-73
2022/06/05 13:30:54;;;;;;;11.57;4.40;;;26.10;91.90;;;;;;5034691;28;20060;-73